sensor_id;sensor_type;location;lat;lon;timestamp;temperature;humidity
14901;DHT22;7542;49.078;9.194;2023-03-14T01:30:09;25.50;51.10
14901;DHT22;7542;49.078;9.194;2023-03-14T01:31:13;25.90;49.10
14901;DHT22;7542;49.078;9.194;2023-03-14T01:32:15;25.90;49.00
14901;DHT22;7542;49.078;9.194;2023-03-14T01:33:17;25.80;49.00
14901;DHT22;7542;49.078;9.194;2023-03-14T01:34:19;25.80;49.00
14901;DHT22;7542;49.078;9.194;2023-03-14T01:35:21;25.70;49.10
14901;DHT22;7542;49.078;9.194;2023-03-14T01:36:23;25.80;49.10
14901;DHT22;7542;49.078;9.194;2023-03-14T01:37:25;25.70;49.10
14901;DHT22;7542;49.078;9.194;2023-03-14T01:38:26;25.70;49.20
14901;DHT22;7542;49.078;9.194;2023-03-14T01:39:29;25.70;49.20
14901;DHT22;7542;49.078;9.194;2023-03-14T01:40:30;25.70;49.20
14901;DHT22;7542;49.078;9.194;2023-03-14T01:41:32;25.70;49.20
14901;DHT22;7542;49.078;9.194;2023-03-14T01:42:34;25.70;49.30
14901;DHT22;7542;49.078;9.194;2023-03-14T01:43:36;25.60;49.30
14901;DHT22;7542;49.078;9.194;2023-03-14T01:47:07;25.50;49.30
14901;DHT22;7542;49.078;9.194;2023-03-14T01:48:09;25.50;49.40
14901;DHT22;7542;49.078;9.194;2023-03-14T01:49:33;25.50;49.40
14901;DHT22;7542;49.078;9.194;2023-03-14T01:50:37;25.50;49.40
14901;DHT22;7542;49.078;9.194;2023-03-14T01:53:08;25.40;49.50
14901;DHT22;7542;49.078;9.194;2023-03-14T01:55:24;25.40;49.50
14901;DHT22;7542;49.078;9.194;2023-03-14T01:56:27;25.40;49.50
14901;DHT22;7542;49.078;9.194;2023-03-14T01:57:36;25.40;49.50
14901;DHT22;7542;49.078;9.194;2023-03-14T01:58:42;25.30;49.50
14901;DHT22;7542;49.078;9.194;2023-03-14T01:59:52;25.30;49.50
14901;DHT22;7542;49.078;9.194;2023-03-14T02:00:58;25.30;49.50
14901;DHT22;7542;49.078;9.194;2023-03-14T02:02:02;25.30;49.60
14901;DHT22;7542;49.078;9.194;2023-03-14T02:03:12;25.30;49.60
14901;DHT22;7542;49.078;9.194;2023-03-14T02:04:19;25.30;49.60
14901;DHT22;7542;49.078;9.194;2023-03-14T02:05:28;25.30;49.60
14901;DHT22;7542;49.078;9.194;2023-03-14T02:08:14;25.20;49.60
14901;DHT22;7542;49.078;9.194;2023-03-14T02:09:19;25.20;49.60
14901;DHT22;7542;49.078;9.194;2023-03-14T02:10:24;25.20;49.60
14901;DHT22;7542;49.078;9.194;2023-03-14T02:11:30;25.20;49.60
14901;DHT22;7542;49.078;9.194;2023-03-14T02:12:32;25.20;49.60
14901;DHT22;7542;49.078;9.194;2023-03-14T02:13:35;25.20;49.60
14901;DHT22;7542;49.078;9.194;2023-03-14T02:14:37;25.10;49.60
14901;DHT22;7542;49.078;9.194;2023-03-14T02:15:39;25.10;49.60
14901;DHT22;7542;49.078;9.194;2023-03-14T02:16:43;25.10;49.60
14901;DHT22;7542;49.078;9.194;2023-03-14T02:17:45;25.20;49.60
14901;DHT22;7542;49.078;9.194;2023-03-14T02:18:47;25.10;49.60
14901;DHT22;7542;49.078;9.194;2023-03-14T02:22:44;25.10;49.60
14901;DHT22;7542;49.078;9.194;2023-03-14T02:24:12;25.10;49.60
14901;DHT22;7542;49.078;9.194;2023-03-14T02:25:48;25.10;49.60
14901;DHT22;7542;49.078;9.194;2023-03-14T02:27:26;25.00;49.60
14901;DHT22;7542;49.078;9.194;2023-03-14T02:28:28;25.10;49.60
14901;DHT22;7542;49.078;9.194;2023-03-14T02:29:32;25.10;49.60
14901;DHT22;7542;49.078;9.194;2023-03-14T02:30:37;25.00;49.60
14901;DHT22;7542;49.078;9.194;2023-03-14T02:31:39;25.00;49.60
14901;DHT22;7542;49.078;9.194;2023-03-14T02:32:43;25.00;49.60
14901;DHT22;7542;49.078;9.194;2023-03-14T02:33:48;25.10;49.60
14901;DHT22;7542;49.078;9.194;2023-03-14T02:34:55;25.00;49.60
14901;DHT22;7542;49.078;9.194;2023-03-14T02:36:00;25.00;49.60
14901;DHT22;7542;49.078;9.194;2023-03-14T02:37:05;25.00;49.60
14901;DHT22;7542;49.078;9.194;2023-03-14T02:39:40;20.30;47.60
14901;DHT22;7542;49.078;9.194;2023-03-14T02:40:46;25.00;49.60
14901;DHT22;7542;49.078;9.194;2023-03-14T02:41:49;25.00;49.50
14901;DHT22;7542;49.078;9.194;2023-03-14T02:42:50;25.00;49.50
14901;DHT22;7542;49.078;9.194;2023-03-14T02:43:52;25.00;49.50
14901;DHT22;7542;49.078;9.194;2023-03-14T02:45:25;24.90;49.60
14901;DHT22;7542;49.078;9.194;2023-03-14T02:46:22;24.90;49.50
14901;DHT22;7542;49.078;9.194;2023-03-14T02:47:28;24.90;49.60
14901;DHT22;7542;49.078;9.194;2023-03-14T02:48:45;24.90;49.60
14901;DHT22;7542;49.078;9.194;2023-03-14T02:50:09;24.90;49.60
14901;DHT22;7542;49.078;9.194;2023-03-14T02:51:15;24.90;49.60
14901;DHT22;7542;49.078;9.194;2023-03-14T02:52:17;24.90;49.60
14901;DHT22;7542;49.078;9.194;2023-03-14T02:53:24;24.90;49.60
14901;DHT22;7542;49.078;9.194;2023-03-14T02:54:28;24.90;49.60
14901;DHT22;7542;49.078;9.194;2023-03-14T02:55:30;24.80;49.50
14901;DHT22;7542;49.078;9.194;2023-03-14T02:56:32;24.80;49.50
14901;DHT22;7542;49.078;9.194;2023-03-14T02:57:33;24.90;49.60
14901;DHT22;7542;49.078;9.194;2023-03-14T02:58:35;24.80;49.50
14901;DHT22;7542;49.078;9.194;2023-03-14T02:59:38;24.90;49.60
14901;DHT22;7542;49.078;9.194;2023-03-14T03:00:40;24.80;49.50
14901;DHT22;7542;49.078;9.194;2023-03-14T03:01:42;24.80;49.50
14901;DHT22;7542;49.078;9.194;2023-03-14T03:02:44;24.80;49.50
14901;DHT22;7542;49.078;9.194;2023-03-14T03:03:47;24.80;49.50
14901;DHT22;7542;49.078;9.194;2023-03-14T03:04:49;24.80;49.50
14901;DHT22;7542;49.078;9.194;2023-03-14T03:05:53;24.80;49.50
14901;DHT22;7542;49.078;9.194;2023-03-14T03:06:55;24.80;49.50
14901;DHT22;7542;49.078;9.194;2023-03-14T03:07:57;24.80;49.50
14901;DHT22;7542;49.078;9.194;2023-03-14T03:08:59;24.80;49.50
14901;DHT22;7542;49.078;9.194;2023-03-14T03:10:02;24.70;49.50
14901;DHT22;7542;49.078;9.194;2023-03-14T03:11:05;24.80;49.50
14901;DHT22;7542;49.078;9.194;2023-03-14T03:12:07;24.70;49.50
14901;DHT22;7542;49.078;9.194;2023-03-14T03:13:09;24.80;49.50
14901;DHT22;7542;49.078;9.194;2023-03-14T03:14:11;24.80;49.50
14901;DHT22;7542;49.078;9.194;2023-03-14T03:15:13;25.50;49.60
14901;DHT22;7542;49.078;9.194;2023-03-14T03:16:15;24.70;49.60
14901;DHT22;7542;49.078;9.194;2023-03-14T03:17:17;24.70;49.50
14901;DHT22;7542;49.078;9.194;2023-03-14T03:18:19;24.70;49.60
14901;DHT22;7542;49.078;9.194;2023-03-14T03:19:21;24.50;49.40
14901;DHT22;7542;49.078;9.194;2023-03-14T03:20:23;24.70;49.50
14901;DHT22;7542;49.078;9.194;2023-03-14T03:21:25;24.70;49.60
14901;DHT22;7542;49.078;9.194;2023-03-14T03:22:27;24.70;49.60
14901;DHT22;7542;49.078;9.194;2023-03-14T03:23:29;24.90;49.60
14901;DHT22;7542;49.078;9.194;2023-03-14T03:24:31;24.70;49.60
14901;DHT22;7542;49.078;9.194;2023-03-14T03:25:33;24.70;49.60
14901;DHT22;7542;49.078;9.194;2023-03-14T03:26:35;24.70;49.60
14901;DHT22;7542;49.078;9.194;2023-03-14T03:27:38;24.70;49.50
14901;DHT22;7542;49.078;9.194;2023-03-14T03:28:40;24.70;49.60
14901;DHT22;7542;49.078;9.194;2023-03-14T03:29:41;24.60;49.40
14901;DHT22;7542;49.078;9.194;2023-03-14T03:30:44;24.60;49.40
14901;DHT22;7542;49.078;9.194;2023-03-14T03:31:45;24.60;49.50
14901;DHT22;7542;49.078;9.194;2023-03-14T03:32:47;24.60;49.50
14901;DHT22;7542;49.078;9.194;2023-03-14T03:33:50;24.60;49.50
14901;DHT22;7542;49.078;9.194;2023-03-14T03:34:52;24.60;49.50
14901;DHT22;7542;49.078;9.194;2023-03-14T03:35:53;24.60;49.50
14901;DHT22;7542;49.078;9.194;2023-03-14T03:36:56;24.60;49.50
14901;DHT22;7542;49.078;9.194;2023-03-14T03:37:59;24.50;49.50
14901;DHT22;7542;49.078;9.194;2023-03-14T03:39:00;24.50;49.50
14901;DHT22;7542;49.078;9.194;2023-03-14T03:40:03;24.60;49.50
14901;DHT22;7542;49.078;9.194;2023-03-14T03:41:07;24.60;49.50
14901;DHT22;7542;49.078;9.194;2023-03-14T03:42:10;24.50;49.50
14901;DHT22;7542;49.078;9.194;2023-03-14T03:43:12;24.50;49.50
14901;DHT22;7542;49.078;9.194;2023-03-14T03:44:14;24.60;49.40
14901;DHT22;7542;49.078;9.194;2023-03-14T03:45:15;24.50;49.50
14901;DHT22;7542;49.078;9.194;2023-03-14T03:46:17;24.60;49.50
14901;DHT22;7542;49.078;9.194;2023-03-14T03:47:19;24.50;49.50
14901;DHT22;7542;49.078;9.194;2023-03-14T03:48:21;24.50;49.50
14901;DHT22;7542;49.078;9.194;2023-03-14T03:49:23;24.50;49.50
14901;DHT22;7542;49.078;9.194;2023-03-14T03:50:25;24.50;49.50
14901;DHT22;7542;49.078;9.194;2023-03-14T03:51:27;24.50;49.50
14901;DHT22;7542;49.078;9.194;2023-03-14T03:52:29;24.50;49.50
14901;DHT22;7542;49.078;9.194;2023-03-14T03:53:31;24.50;49.50
14901;DHT22;7542;49.078;9.194;2023-03-14T03:54:35;24.50;49.50
14901;DHT22;7542;49.078;9.194;2023-03-14T03:55:37;24.50;49.50
14901;DHT22;7542;49.078;9.194;2023-03-14T03:56:41;24.50;49.50
14901;DHT22;7542;49.078;9.194;2023-03-14T03:57:43;24.40;49.40
14901;DHT22;7542;49.078;9.194;2023-03-14T03:58:45;24.50;49.50
14901;DHT22;7542;49.078;9.194;2023-03-14T03:59:47;24.40;49.40
14901;DHT22;7542;49.078;9.194;2023-03-14T04:00:49;24.40;49.40
14901;DHT22;7542;49.078;9.194;2023-03-14T04:01:51;24.40;49.40
14901;DHT22;7542;49.078;9.194;2023-03-14T04:02:53;24.40;49.40
14901;DHT22;7542;49.078;9.194;2023-03-14T04:03:55;24.40;49.40
14901;DHT22;7542;49.078;9.194;2023-03-14T04:04:57;24.40;49.40
14901;DHT22;7542;49.078;9.194;2023-03-14T04:06:04;24.40;49.40
14901;DHT22;7542;49.078;9.194;2023-03-14T04:07:08;24.40;49.50
14901;DHT22;7542;49.078;9.194;2023-03-14T04:08:10;24.40;49.50
14901;DHT22;7542;49.078;9.194;2023-03-14T04:09:12;24.40;49.50
14901;DHT22;7542;49.078;9.194;2023-03-14T04:10:15;24.10;49.40
14901;DHT22;7542;49.078;9.194;2023-03-14T04:11:17;24.40;49.50
14901;DHT22;7542;49.078;9.194;2023-03-14T04:12:19;24.40;49.50
14901;DHT22;7542;49.078;9.194;2023-03-14T04:13:21;24.40;49.50
14901;DHT22;7542;49.078;9.194;2023-03-14T04:14:23;24.40;49.50
14901;DHT22;7542;49.078;9.194;2023-03-14T04:15:25;24.40;49.50
14901;DHT22;7542;49.078;9.194;2023-03-14T04:16:27;24.30;49.50
14901;DHT22;7542;49.078;9.194;2023-03-14T04:17:29;24.40;49.50
14901;DHT22;7542;49.078;9.194;2023-03-14T04:18:31;24.30;49.50
14901;DHT22;7542;49.078;9.194;2023-03-14T04:19:33;24.30;49.50
14901;DHT22;7542;49.078;9.194;2023-03-14T04:20:35;24.30;49.50
14901;DHT22;7542;49.078;9.194;2023-03-14T04:21:37;24.30;49.50
14901;DHT22;7542;49.078;9.194;2023-03-14T04:22:42;24.20;49.40
14901;DHT22;7542;49.078;9.194;2023-03-14T04:23:45;24.40;49.50
14901;DHT22;7542;49.078;9.194;2023-03-14T04:24:47;24.30;49.50
14901;DHT22;7542;49.078;9.194;2023-03-14T04:25:49;24.30;49.50
14901;DHT22;7542;49.078;9.194;2023-03-14T04:26:54;24.30;49.50
14901;DHT22;7542;49.078;9.194;2023-03-14T04:27:56;24.30;49.50
14901;DHT22;7542;49.078;9.194;2023-03-14T04:28:58;24.20;49.40
14901;DHT22;7542;49.078;9.194;2023-03-14T04:30:00;24.20;49.40
14901;DHT22;7542;49.078;9.194;2023-03-14T04:31:10;24.20;49.40
14901;DHT22;7542;49.078;9.194;2023-03-14T04:32:14;24.20;49.40
14901;DHT22;7542;49.078;9.194;2023-03-14T04:33:15;24.20;49.40
14901;DHT22;7542;49.078;9.194;2023-03-14T04:34:18;24.20;49.40
14901;DHT22;7542;49.078;9.194;2023-03-14T04:35:20;24.20;49.40
14901;DHT22;7542;49.078;9.194;2023-03-14T04:36:22;24.20;49.40
14901;DHT22;7542;49.078;9.194;2023-03-14T04:37:24;24.20;49.40
14901;DHT22;7542;49.078;9.194;2023-03-14T04:38:26;24.20;49.40
14901;DHT22;7542;49.078;9.194;2023-03-14T04:39:28;24.20;49.40
14901;DHT22;7542;49.078;9.194;2023-03-14T04:40:29;24.20;49.40
14901;DHT22;7542;49.078;9.194;2023-03-14T04:41:31;24.20;49.50
14901;DHT22;7542;49.078;9.194;2023-03-14T04:42:33;24.20;49.40
14901;DHT22;7542;49.078;9.194;2023-03-14T04:43:35;24.10;49.50
14901;DHT22;7542;49.078;9.194;2023-03-14T04:44:37;24.10;49.50
14901;DHT22;7542;49.078;9.194;2023-03-14T04:45:42;24.10;49.50
14901;DHT22;7542;49.078;9.194;2023-03-14T04:46:44;24.10;49.40
14901;DHT22;7542;49.078;9.194;2023-03-14T04:47:46;24.10;49.50
14901;DHT22;7542;49.078;9.194;2023-03-14T04:48:48;24.10;49.50
14901;DHT22;7542;49.078;9.194;2023-03-14T04:49:50;24.20;49.50
14901;DHT22;7542;49.078;9.194;2023-03-14T04:50:52;24.10;49.50
14901;DHT22;7542;49.078;9.194;2023-03-14T04:51:55;24.10;49.40
14901;DHT22;7542;49.078;9.194;2023-03-14T04:52:56;24.10;49.40
14901;DHT22;7542;49.078;9.194;2023-03-14T04:53:59;24.10;49.50
14901;DHT22;7542;49.078;9.194;2023-03-14T04:55:01;24.10;49.40
14901;DHT22;7542;49.078;9.194;2023-03-14T04:56:03;24.10;49.40
14901;DHT22;7542;49.078;9.194;2023-03-14T04:57:05;24.10;49.40
14901;DHT22;7542;49.078;9.194;2023-03-14T04:58:07;24.10;49.50
14901;DHT22;7542;49.078;9.194;2023-03-14T04:59:09;24.10;49.50
14901;DHT22;7542;49.078;9.194;2023-03-14T05:00:11;24.10;49.50
14901;DHT22;7542;49.078;9.194;2023-03-14T05:01:13;24.10;49.50
14901;DHT22;7542;49.078;9.194;2023-03-14T05:02:15;24.00;49.40
14901;DHT22;7542;49.078;9.194;2023-03-14T05:03:18;24.00;49.40
14901;DHT22;7542;49.078;9.194;2023-03-14T05:04:20;24.00;49.40
14901;DHT22;7542;49.078;9.194;2023-03-14T05:05:23;24.00;49.40
14901;DHT22;7542;49.078;9.194;2023-03-14T05:06:25;24.00;49.40
14901;DHT22;7542;49.078;9.194;2023-03-14T05:07:27;24.00;49.40
14901;DHT22;7542;49.078;9.194;2023-03-14T05:08:28;24.00;49.40
14901;DHT22;7542;49.078;9.194;2023-03-14T05:09:30;24.00;49.40
14901;DHT22;7542;49.078;9.194;2023-03-14T05:10:32;24.00;49.40
14901;DHT22;7542;49.078;9.194;2023-03-14T05:11:34;24.00;49.40
14901;DHT22;7542;49.078;9.194;2023-03-14T05:12:36;24.00;49.40
14901;DHT22;7542;49.078;9.194;2023-03-14T05:13:39;24.00;49.40
14901;DHT22;7542;49.078;9.194;2023-03-14T05:14:41;24.00;49.40
14901;DHT22;7542;49.078;9.194;2023-03-14T05:15:43;24.00;49.40
14901;DHT22;7542;49.078;9.194;2023-03-14T05:16:45;24.00;49.40
14901;DHT22;7542;49.078;9.194;2023-03-14T05:17:47;24.00;49.40
14901;DHT22;7542;49.078;9.194;2023-03-14T05:18:50;24.00;49.40
14901;DHT22;7542;49.078;9.194;2023-03-14T05:19:53;24.00;49.40
14901;DHT22;7542;49.078;9.194;2023-03-14T05:20:55;23.90;49.40
14901;DHT22;7542;49.078;9.194;2023-03-14T05:21:57;23.90;49.40
14901;DHT22;7542;49.078;9.194;2023-03-14T05:22:59;23.90;49.40
14901;DHT22;7542;49.078;9.194;2023-03-14T05:24:00;24.00;49.40
14901;DHT22;7542;49.078;9.194;2023-03-14T05:25:02;23.90;49.40
14901;DHT22;7542;49.078;9.194;2023-03-14T05:26:05;23.90;49.40
14901;DHT22;7542;49.078;9.194;2023-03-14T05:27:07;23.90;49.40
14901;DHT22;7542;49.078;9.194;2023-03-14T05:28:08;23.90;49.40
14901;DHT22;7542;49.078;9.194;2023-03-14T05:29:10;23.90;49.40
14901;DHT22;7542;49.078;9.194;2023-03-14T05:30:12;24.00;49.40
14901;DHT22;7542;49.078;9.194;2023-03-14T05:31:14;23.90;49.40
14901;DHT22;7542;49.078;9.194;2023-03-14T05:32:16;23.90;49.40
14901;DHT22;7542;49.078;9.194;2023-03-14T05:33:18;23.90;49.40
14901;DHT22;7542;49.078;9.194;2023-03-14T05:34:20;23.90;49.40
14901;DHT22;7542;49.078;9.194;2023-03-14T05:35:22;23.90;49.40
14901;DHT22;7542;49.078;9.194;2023-03-14T05:36:24;23.90;49.40
14901;DHT22;7542;49.078;9.194;2023-03-14T05:37:26;23.90;49.40
14901;DHT22;7542;49.078;9.194;2023-03-14T05:38:28;23.90;49.40
14901;DHT22;7542;49.078;9.194;2023-03-14T05:39:30;23.90;49.40
14901;DHT22;7542;49.078;9.194;2023-03-14T05:40:32;23.80;49.30
14901;DHT22;7542;49.078;9.194;2023-03-14T05:41:34;23.90;49.40
14901;DHT22;7542;49.078;9.194;2023-03-14T05:42:35;23.80;49.30
14901;DHT22;7542;49.078;9.194;2023-03-14T05:43:37;23.80;49.40
14901;DHT22;7542;49.078;9.194;2023-03-14T05:44:39;23.90;49.40
14901;DHT22;7542;49.078;9.194;2023-03-14T05:45:42;23.80;49.30
14901;DHT22;7542;49.078;9.194;2023-03-14T05:46:44;23.90;49.50
14901;DHT22;7542;49.078;9.194;2023-03-14T05:47:46;23.80;49.30
14901;DHT22;7542;49.078;9.194;2023-03-14T05:48:48;23.80;49.40
14901;DHT22;7542;49.078;9.194;2023-03-14T05:49:50;23.80;49.40
14901;DHT22;7542;49.078;9.194;2023-03-14T05:50:55;23.80;49.40
14901;DHT22;7542;49.078;9.194;2023-03-14T05:51:58;23.80;49.40
14901;DHT22;7542;49.078;9.194;2023-03-14T05:53:00;23.80;49.40
14901;DHT22;7542;49.078;9.194;2023-03-14T05:54:01;23.80;49.40
14901;DHT22;7542;49.078;9.194;2023-03-14T05:55:04;23.80;49.30
14901;DHT22;7542;49.078;9.194;2023-03-14T05:56:06;23.80;49.40
14901;DHT22;7542;49.078;9.194;2023-03-14T05:57:09;23.80;49.40
14901;DHT22;7542;49.078;9.194;2023-03-14T05:58:11;23.80;49.40
14901;DHT22;7542;49.078;9.194;2023-03-14T05:59:12;23.80;49.40
14901;DHT22;7542;49.078;9.194;2023-03-14T06:00:16;24.60;49.70
14901;DHT22;7542;49.078;9.194;2023-03-14T06:01:18;23.80;49.40
14901;DHT22;7542;49.078;9.194;2023-03-14T06:02:20;23.80;49.40
14901;DHT22;7542;49.078;9.194;2023-03-14T06:03:22;23.70;49.40
14901;DHT22;7542;49.078;9.194;2023-03-14T06:04:24;23.80;49.40
14901;DHT22;7542;49.078;9.194;2023-03-14T06:05:26;23.70;49.30
14901;DHT22;7542;49.078;9.194;2023-03-14T06:06:28;23.70;49.40
14901;DHT22;7542;49.078;9.194;2023-03-14T06:07:30;23.80;49.30
14901;DHT22;7542;49.078;9.194;2023-03-14T06:08:32;23.80;49.30
14901;DHT22;7542;49.078;9.194;2023-03-14T06:09:35;23.70;49.40
14901;DHT22;7542;49.078;9.194;2023-03-14T06:10:37;23.60;49.20
14901;DHT22;7542;49.078;9.194;2023-03-14T06:11:39;23.70;49.30
14901;DHT22;7542;49.078;9.194;2023-03-14T06:12:41;23.70;49.30
14901;DHT22;7542;49.078;9.194;2023-03-14T06:13:43;23.70;49.30
14901;DHT22;7542;49.078;9.194;2023-03-14T06:14:45;23.70;49.30
14901;DHT22;7542;49.078;9.194;2023-03-14T06:15:47;23.70;49.30
14901;DHT22;7542;49.078;9.194;2023-03-14T06:16:48;24.60;49.70
14901;DHT22;7542;49.078;9.194;2023-03-14T06:17:54;23.70;49.30
14901;DHT22;7542;49.078;9.194;2023-03-14T06:18:56;23.70;49.30
14901;DHT22;7542;49.078;9.194;2023-03-14T06:19:58;23.70;49.40
14901;DHT22;7542;49.078;9.194;2023-03-14T06:21:00;23.70;49.40
14901;DHT22;7542;49.078;9.194;2023-03-14T06:22:02;23.70;49.30
14901;DHT22;7542;49.078;9.194;2023-03-14T06:23:04;23.70;49.30
14901;DHT22;7542;49.078;9.194;2023-03-14T06:24:07;23.70;49.40
14901;DHT22;7542;49.078;9.194;2023-03-14T06:25:09;23.70;49.40
14901;DHT22;7542;49.078;9.194;2023-03-14T06:26:11;23.70;49.30
14901;DHT22;7542;49.078;9.194;2023-03-14T06:27:15;23.70;49.40
14901;DHT22;7542;49.078;9.194;2023-03-14T06:28:17;23.70;49.40
14901;DHT22;7542;49.078;9.194;2023-03-14T06:29:19;23.70;49.50
14901;DHT22;7542;49.078;9.194;2023-03-14T06:30:21;23.70;49.50
14901;DHT22;7542;49.078;9.194;2023-03-14T06:31:23;23.70;49.60
14901;DHT22;7542;49.078;9.194;2023-03-14T06:32:25;23.70;49.60
14901;DHT22;7542;49.078;9.194;2023-03-14T06:33:27;23.70;49.60
14901;DHT22;7542;49.078;9.194;2023-03-14T06:34:29;23.70;49.70
14901;DHT22;7542;49.078;9.194;2023-03-14T06:35:31;23.70;49.70
14901;DHT22;7542;49.078;9.194;2023-03-14T06:36:33;23.80;49.80
14901;DHT22;7542;49.078;9.194;2023-03-14T06:37:34;23.80;49.70
14901;DHT22;7542;49.078;9.194;2023-03-14T06:38:36;23.70;49.70
14901;DHT22;7542;49.078;9.194;2023-03-14T06:39:38;23.70;49.80
14901;DHT22;7542;49.078;9.194;2023-03-14T06:40:41;23.70;49.80
14901;DHT22;7542;49.078;9.194;2023-03-14T06:41:43;23.70;49.80
14901;DHT22;7542;49.078;9.194;2023-03-14T06:42:45;23.80;49.80
14901;DHT22;7542;49.078;9.194;2023-03-14T06:43:47;23.70;49.80
14901;DHT22;7542;49.078;9.194;2023-03-14T06:44:50;23.70;49.90
14901;DHT22;7542;49.078;9.194;2023-03-14T06:45:52;23.70;49.90
14901;DHT22;7542;49.078;9.194;2023-03-14T06:46:53;23.80;49.90
14901;DHT22;7542;49.078;9.194;2023-03-14T06:47:55;23.80;49.90
14901;DHT22;7542;49.078;9.194;2023-03-14T06:48:57;23.70;50.00
14901;DHT22;7542;49.078;9.194;2023-03-14T06:49:59;23.80;50.00
14901;DHT22;7542;49.078;9.194;2023-03-14T06:51:01;23.80;50.00
14901;DHT22;7542;49.078;9.194;2023-03-14T06:52:03;23.80;49.90
14901;DHT22;7542;49.078;9.194;2023-03-14T06:53:05;23.80;49.90
14901;DHT22;7542;49.078;9.194;2023-03-14T06:54:07;23.70;50.00
14901;DHT22;7542;49.078;9.194;2023-03-14T06:55:09;23.80;49.90
14901;DHT22;7542;49.078;9.194;2023-03-14T06:56:11;23.80;49.90
14901;DHT22;7542;49.078;9.194;2023-03-14T06:57:13;23.80;49.90
14901;DHT22;7542;49.078;9.194;2023-03-14T06:58:14;23.70;49.90
14901;DHT22;7542;49.078;9.194;2023-03-14T06:59:16;23.70;49.90
14901;DHT22;7542;49.078;9.194;2023-03-14T07:00:19;23.90;50.00
14901;DHT22;7542;49.078;9.194;2023-03-14T07:01:26;23.80;49.90
14901;DHT22;7542;49.078;9.194;2023-03-14T07:02:29;23.80;49.90
14901;DHT22;7542;49.078;9.194;2023-03-14T07:03:43;23.80;49.90
14901;DHT22;7542;49.078;9.194;2023-03-14T07:04:45;23.80;49.90
14901;DHT22;7542;49.078;9.194;2023-03-14T07:05:47;23.80;49.90
14901;DHT22;7542;49.078;9.194;2023-03-14T07:06:49;23.80;49.90
14901;DHT22;7542;49.078;9.194;2023-03-14T07:07:51;23.80;50.00
14901;DHT22;7542;49.078;9.194;2023-03-14T07:08:52;23.80;50.00
14901;DHT22;7542;49.078;9.194;2023-03-14T07:09:54;23.80;50.00
14901;DHT22;7542;49.078;9.194;2023-03-14T07:10:56;23.80;50.10
14901;DHT22;7542;49.078;9.194;2023-03-14T07:11:58;23.80;50.20
14901;DHT22;7542;49.078;9.194;2023-03-14T07:13:01;23.80;50.20
14901;DHT22;7542;49.078;9.194;2023-03-14T07:14:03;23.80;50.20
14901;DHT22;7542;49.078;9.194;2023-03-14T07:15:05;23.80;50.30
14901;DHT22;7542;49.078;9.194;2023-03-14T07:16:19;23.80;50.40
14901;DHT22;7542;49.078;9.194;2023-03-14T07:17:21;28.20;52.30
14901;DHT22;7542;49.078;9.194;2023-03-14T07:18:23;23.80;50.40
14901;DHT22;7542;49.078;9.194;2023-03-14T07:19:25;23.80;50.40
14901;DHT22;7542;49.078;9.194;2023-03-14T07:20:27;23.80;50.40
14901;DHT22;7542;49.078;9.194;2023-03-14T07:21:30;23.80;50.40
14901;DHT22;7542;49.078;9.194;2023-03-14T07:22:33;23.80;50.40
14901;DHT22;7542;49.078;9.194;2023-03-14T07:23:35;23.80;50.60
14901;DHT22;7542;49.078;9.194;2023-03-14T07:24:37;23.80;50.50
14901;DHT22;7542;49.078;9.194;2023-03-14T07:25:38;23.80;50.40
14901;DHT22;7542;49.078;9.194;2023-03-14T07:26:40;23.80;50.40
14901;DHT22;7542;49.078;9.194;2023-03-14T07:27:46;23.80;50.60
14901;DHT22;7542;49.078;9.194;2023-03-14T07:28:49;23.80;50.80
14901;DHT22;7542;49.078;9.194;2023-03-14T07:29:51;23.80;50.80
14901;DHT22;7542;49.078;9.194;2023-03-14T07:30:54;23.80;50.80
14901;DHT22;7542;49.078;9.194;2023-03-14T07:31:56;23.80;50.90
14901;DHT22;7542;49.078;9.194;2023-03-14T07:32:58;23.80;50.90
14901;DHT22;7542;49.078;9.194;2023-03-14T07:34:00;23.80;51.00
14901;DHT22;7542;49.078;9.194;2023-03-14T07:35:02;23.80;50.90
14901;DHT22;7542;49.078;9.194;2023-03-14T07:36:05;23.80;51.00
14901;DHT22;7542;49.078;9.194;2023-03-14T07:37:07;23.80;51.00
14901;DHT22;7542;49.078;9.194;2023-03-14T07:38:09;23.80;50.90
14901;DHT22;7542;49.078;9.194;2023-03-14T07:39:11;23.80;50.90
14901;DHT22;7542;49.078;9.194;2023-03-14T07:40:13;23.80;50.90
14901;DHT22;7542;49.078;9.194;2023-03-14T07:41:16;23.90;51.00
14901;DHT22;7542;49.078;9.194;2023-03-14T07:42:18;23.80;51.00
14901;DHT22;7542;49.078;9.194;2023-03-14T07:43:20;23.80;50.70
14901;DHT22;7542;49.078;9.194;2023-03-14T07:44:22;23.80;50.70
14901;DHT22;7542;49.078;9.194;2023-03-14T07:45:24;23.80;50.80
14901;DHT22;7542;49.078;9.194;2023-03-14T07:46:25;23.90;50.90
14901;DHT22;7542;49.078;9.194;2023-03-14T07:47:27;23.80;50.80
14901;DHT22;7542;49.078;9.194;2023-03-14T07:48:29;23.90;51.20
14901;DHT22;7542;49.078;9.194;2023-03-14T07:49:31;23.90;51.00
14901;DHT22;7542;49.078;9.194;2023-03-14T07:50:33;23.90;51.00
14901;DHT22;7542;49.078;9.194;2023-03-14T07:51:35;23.90;50.90
14901;DHT22;7542;49.078;9.194;2023-03-14T07:52:37;23.90;50.90
14901;DHT22;7542;49.078;9.194;2023-03-14T07:53:39;24.00;50.90
14901;DHT22;7542;49.078;9.194;2023-03-14T07:54:40;24.00;51.00
14901;DHT22;7542;49.078;9.194;2023-03-14T07:55:43;24.00;50.90
14901;DHT22;7542;49.078;9.194;2023-03-14T07:56:46;24.00;50.50
14901;DHT22;7542;49.078;9.194;2023-03-14T07:57:48;24.00;50.40
14901;DHT22;7542;49.078;9.194;2023-03-14T07:58:50;24.10;50.50
14901;DHT22;7542;49.078;9.194;2023-03-14T07:59:52;24.10;50.50
14901;DHT22;7542;49.078;9.194;2023-03-14T08:00:53;24.10;50.50
14901;DHT22;7542;49.078;9.194;2023-03-14T08:01:55;24.10;50.60
14901;DHT22;7542;49.078;9.194;2023-03-14T08:02:57;24.20;50.50
14901;DHT22;7542;49.078;9.194;2023-03-14T08:03:59;24.20;50.50
14901;DHT22;7542;49.078;9.194;2023-03-14T08:05:02;24.20;50.40
14901;DHT22;7542;49.078;9.194;2023-03-14T08:06:06;24.30;50.50
14901;DHT22;7542;49.078;9.194;2023-03-14T08:07:08;24.30;50.40
14901;DHT22;7542;49.078;9.194;2023-03-14T08:08:10;24.40;50.40
14901;DHT22;7542;49.078;9.194;2023-03-14T08:09:12;24.40;50.40
14901;DHT22;7542;49.078;9.194;2023-03-14T08:10:13;24.40;50.30
14901;DHT22;7542;49.078;9.194;2023-03-14T08:11:22;24.50;50.40
14901;DHT22;7542;49.078;9.194;2023-03-14T08:12:24;24.50;50.30
14901;DHT22;7542;49.078;9.194;2023-03-14T08:13:26;24.50;50.40
14901;DHT22;7542;49.078;9.194;2023-03-14T08:14:28;24.50;50.00
14901;DHT22;7542;49.078;9.194;2023-03-14T08:15:31;24.50;48.90
14901;DHT22;7542;49.078;9.194;2023-03-14T08:16:33;24.50;48.20
14901;DHT22;7542;49.078;9.194;2023-03-14T08:17:35;24.50;47.60
14901;DHT22;7542;49.078;9.194;2023-03-14T08:18:37;24.30;47.40
14901;DHT22;7542;49.078;9.194;2023-03-14T08:19:41;24.40;47.20
14901;DHT22;7542;49.078;9.194;2023-03-14T08:20:43;24.40;46.80
14901;DHT22;7542;49.078;9.194;2023-03-14T08:21:45;24.30;46.40
14901;DHT22;7542;49.078;9.194;2023-03-14T08:22:47;24.20;46.50
14901;DHT22;7542;49.078;9.194;2023-03-14T08:23:49;24.20;46.40
14901;DHT22;7542;49.078;9.194;2023-03-14T08:24:51;24.20;46.50